GMME Airport Information

Runway Information
Runway 04 Length 11483 ft width 148 ft
Elevation 273 ft Threshold 0 ft Heading 31
Runway 22 Length 11483 ft Width 148 ft
Elevation 240 ft Threshold 0 ft Heading 211
Airport Frequencies
Type APP Name APP Frequency 118.9 MHZ
Type TWR Name TWR Frequency 118.3 MHZ
Airport Navaids
Type VOR-DME Name Rabat Frequency 116500 KHZ
Type NDB Name Rabat Frequency 332 KHZ
Airport Weather Information & NOTAM
ADDS - METARS form results

(1913 UTC 25 June 2018)
 
METAR text: GMME 251900Z 35008KT 8000 BKN026 21/15 Q1018 NOSIG
Conditions at: GMME (RABAT/SALE (RMAF, MA) observed 1900 UTC 25 June 2018
Temperature: 21.0°C (70°F)
Dewpoint: 15.0°C (59°F) [RH = 69%]
Pressure (altimeter): 30.06 inches Hg (1018.0 mb)
Winds: from the N (350 degrees) at 9 MPH (8 knots; 4.2 m/s)
Visibility: 5 miles (8 km)
Ceiling: 2600 feet AGL
Clouds: broken clouds at 2600 feet AGL
Weather: no significant weather observed at this time

METAR text: GMME 251830Z 36008KT 8000 BKN026 21/14 Q1018 NOSIG
Conditions at: GMME (RABAT/SALE (RMAF, MA) observed 1830 UTC 25 June 2018
Temperature: 21.0°C (70°F)
Dewpoint: 14.0°C (57°F) [RH = 64%]
Pressure (altimeter): 30.06 inches Hg (1018.0 mb)
Winds: from the N (360 degrees) at 9 MPH (8 knots; 4.2 m/s)
Visibility: 5 miles (8 km)
Ceiling: 2600 feet AGL
Clouds: broken clouds at 2600 feet AGL
Weather: no significant weather observed at this time